createdAt,value
2018-01-23T00:02:08.047Z,101118.18
2018-01-23T00:07:09.400Z,101144.78
2018-01-23T00:12:11.437Z,101151.87
2018-01-23T00:17:12.776Z,101166.80
2018-01-23T00:22:14.811Z,101172.17
2018-01-23T00:27:16.138Z,101188.70
2018-01-23T00:32:17.510Z,101186.47
2018-01-23T00:37:19.019Z,101183.95
2018-01-23T00:42:20.344Z,101180.25
2018-01-23T00:47:21.742Z,101187.18
2018-01-23T00:52:23.802Z,101198.23
2018-01-23T00:57:25.158Z,101197.12
2018-01-23T01:02:26.491Z,101191.50
2018-01-23T01:07:27.841Z,101204.45
2018-01-23T01:12:29.183Z,101206.05
2018-01-23T01:17:30.568Z,101209.47
2018-01-23T01:22:31.883Z,101215.99
2018-01-23T01:27:33.955Z,101217.21
2018-01-23T01:32:35.284Z,101227.77
2018-01-23T01:37:37.409Z,101239.09
2018-01-23T01:42:39.438Z,101246.11
2018-01-23T01:47:40.804Z,101251.27
2018-01-23T01:52:42.915Z,101249.09
2018-01-23T01:57:44.200Z,101258.57
2018-01-23T02:02:46.465Z,101260.97
2018-01-23T02:07:47.826Z,101262.97
2018-01-23T02:12:49.248Z,101273.23
2018-01-23T02:17:50.693Z,101277.16
2018-01-23T02:22:52.035Z,101280.66
2018-01-23T02:27:53.380Z,101281.91
2018-01-23T02:32:54.843Z,101288.45
2018-01-23T02:37:56.940Z,101299.44
2018-01-23T02:42:58.299Z,101307.76
2018-01-23T02:47:59.632Z,101307.75
2018-01-23T02:53:01.694Z,101309.91
2018-01-23T02:58:03.056Z,101312.05
2018-01-23T03:03:04.380Z,101320.83
2018-01-23T03:08:05.736Z,101325.96
2018-01-23T03:13:07.097Z,101335.16
2018-01-23T03:18:08.458Z,101346.37
2018-01-23T03:23:09.819Z,101357.16
2018-01-23T03:28:11.131Z,101366.23
2018-01-23T03:33:12.548Z,101370.50
2018-01-23T03:38:13.874Z,101378.62
2018-01-23T03:43:15.232Z,101375.73
2018-01-23T03:48:17.292Z,101384.43
2018-01-23T03:53:18.628Z,101393.69
2018-01-23T03:58:20.723Z,101393.10
2018-01-23T04:03:22.939Z,101396.42
2018-01-23T04:08:24.262Z,101404.69
2018-01-23T04:13:25.632Z,101405.04
2018-01-23T04:18:27.738Z,101412.08
2018-01-23T04:23:30.021Z,101408.77
2018-01-23T04:28:31.319Z,101415.27
2018-01-23T04:33:32.623Z,101423.55
2018-01-23T04:38:34.766Z,101421.27
2018-01-23T04:43:36.084Z,101434.34
2018-01-23T04:48:37.395Z,101442.30
2018-01-23T04:53:39.309Z,101449.22
2018-01-23T04:58:41.527Z,101452.64
2018-01-23T05:03:43.214Z,101451.40
2018-01-23T05:08:44.784Z,101452.77
2018-01-23T05:13:46.121Z,101464.83
2018-01-23T05:18:47.459Z,101464.45
2018-01-23T05:23:48.766Z,101470.08
2018-01-23T05:28:50.098Z,101476.43
2018-01-23T05:33:51.437Z,101481.63
2018-01-23T05:38:52.775Z,101478.02
2018-01-23T05:43:54.159Z,101487.15
2018-01-23T05:48:55.459Z,101491.81
2018-01-23T05:53:56.826Z,101501.82
2018-01-23T05:58:58.931Z,101503.08
2018-01-23T06:04:00.986Z,101503.98
2018-01-23T06:09:02.451Z,101522.91
2018-01-23T06:14:03.846Z,101523.63
2018-01-23T06:19:05.228Z,101525.02
2018-01-23T06:24:06.592Z,101540.09
2018-01-23T06:29:07.935Z,101543.64
2018-01-23T06:34:09.308Z,101554.80
2018-01-23T06:39:10.718Z,101561.69
2018-01-23T06:44:12.223Z,101560.27
2018-01-23T06:49:13.535Z,101569.50
2018-01-23T06:54:14.846Z,101569.50
2018-01-23T06:59:16.195Z,101576.13
2018-01-23T07:04:17.520Z,101584.00
2018-01-23T07:09:19.587Z,101587.77
2018-01-23T07:14:20.896Z,101584.59
2018-01-23T07:19:22.248Z,101591.27
2018-01-23T07:24:23.583Z,101587.19
2018-01-23T07:29:25.618Z,101593.58
2018-01-23T07:34:26.974Z,101584.66
2018-01-23T07:39:28.333Z,101594.17
2018-01-23T07:44:30.236Z,101597.66
2018-01-23T07:49:31.859Z,101609.67
2018-01-23T07:54:33.301Z,101603.86
2018-01-23T07:59:34.913Z,101622.64
2018-01-23T08:04:36.247Z,101630.23
2018-01-23T08:09:37.615Z,101634.00
2018-01-23T08:14:39.801Z,101650.58
2018-01-23T08:19:41.223Z,101650.06
2018-01-23T08:24:42.528Z,101656.19
2018-01-23T08:29:43.869Z,101668.41
2018-01-23T08:34:45.287Z,101666.42
2018-01-23T08:39:46.687Z,101678.66
2018-01-23T08:44:48.019Z,101672.20
2018-01-23T08:49:49.415Z,101676.81
2018-01-23T08:54:50.723Z,101673.73
2018-01-23T08:59:52.096Z,101678.64
2018-01-23T09:04:53.415Z,101680.02
2018-01-23T09:09:55.532Z,101685.78
2018-01-23T09:14:56.840Z,101674.02
2018-01-23T09:19:58.171Z,101680.21
2018-01-23T09:24:59.489Z,101683.47
2018-01-23T09:30:04.739Z,101690.69
2018-01-23T09:35:06.192Z,101680.25
2018-01-23T09:40:07.571Z,101691.48
2018-01-23T09:45:08.956Z,101689.14
2018-01-23T09:50:11.077Z,101700.89
2018-01-23T09:55:12.386Z,101698.84
2018-01-23T10:00:13.770Z,101705.34
2018-01-23T10:05:15.091Z,101694.30
2018-01-23T10:10:16.435Z,101702.31
2018-01-23T10:15:17.770Z,101697.84
2018-01-23T10:20:19.272Z,101697.26
2018-01-23T10:25:20.599Z,101699.17
2018-01-23T10:30:21.920Z,101707.11
2018-01-23T10:35:23.311Z,101709.27
2018-01-23T10:40:24.665Z,101702.77
2018-01-23T10:45:26.003Z,101704.33
2018-01-23T10:50:27.332Z,101700.98
2018-01-23T10:55:28.733Z,101699.92
2018-01-23T11:00:30.071Z,101695.29
2018-01-23T11:05:31.399Z,101700.16
2018-01-23T11:10:36.317Z,101694.19
2018-01-23T11:15:37.716Z,101700.03
2018-01-23T11:20:39.311Z,101689.52
2018-01-23T11:25:40.636Z,101678.70
2018-01-23T11:30:42.793Z,101672.55
2018-01-23T11:35:44.161Z,101679.54
2018-01-23T11:40:45.498Z,101675.97
2018-01-23T11:45:46.836Z,101675.89
2018-01-23T11:50:48.957Z,101666.00
2018-01-23T11:55:50.315Z,101660.03
2018-01-23T12:05:53.706Z,101649.07
2018-01-23T12:10:55.019Z,101648.60
2018-01-23T12:15:56.362Z,101646.45
2018-01-23T12:20:57.688Z,101647.41
2018-01-23T12:25:59.775Z,101647.16
2018-01-23T12:31:01.099Z,101632.75
2018-01-23T12:36:02.440Z,101639.44
2018-01-23T12:41:04.794Z,101630.08
2018-01-23T12:46:06.261Z,101629.81
2018-01-23T12:51:07.654Z,101621.30
2018-01-23T12:56:09.022Z,101613.24
2018-01-23T13:01:10.380Z,101607.84
2018-01-23T13:06:11.719Z,101604.66
2018-01-23T13:11:13.076Z,101592.80
2018-01-23T13:16:14.422Z,101590.84
2018-01-23T13:21:16.555Z,101588.70
2018-01-23T13:26:17.951Z,101584.93
2018-01-23T13:31:19.850Z,101578.73
2018-01-23T13:36:21.199Z,101574.91
2018-01-23T13:41:22.548Z,101573.25
2018-01-23T13:46:24.191Z,101570.62
2018-01-23T13:51:26.264Z,101561.86
2018-01-23T13:56:27.722Z,101556.61
2018-01-23T14:01:29.899Z,101547.68
2018-01-23T14:06:31.952Z,101547.41
2018-01-23T14:11:33.291Z,101541.32
2018-01-23T14:16:35.403Z,101544.27
2018-01-23T14:21:37.519Z,101537.72
2018-01-23T14:26:38.916Z,101546.59
2018-01-23T14:31:41.007Z,101521.48
2018-01-23T14:36:43.063Z,101521.68
2018-01-23T14:41:44.420Z,101519.34
2018-01-23T14:46:46.468Z,101516.67
2018-01-23T14:51:47.824Z,101499.08
2018-01-23T14:56:49.147Z,101501.27
2018-01-23T15:01:50.460Z,101490.28
2018-01-23T15:06:51.816Z,101490.91
2018-01-23T15:11:53.298Z,101494.33
2018-01-23T15:16:54.710Z,101470.28
2018-01-23T15:21:56.069Z,101502.70
2018-01-23T15:26:57.395Z,101497.94
2018-01-23T15:31:58.743Z,101490.95
2018-01-23T15:37:00.137Z,101480.64
2018-01-23T15:42:01.464Z,101478.72
2018-01-23T15:47:02.796Z,101475.91
2018-01-23T15:52:04.882Z,101475.08
2018-01-23T15:57:06.248Z,101473.26
2018-01-23T16:02:07.635Z,101465.05
2018-01-23T16:07:09.010Z,101462.14
2018-01-23T16:12:10.346Z,101459.67
2018-01-23T16:17:11.671Z,101457.86
2018-01-23T16:22:13.035Z,101443.21
2018-01-23T16:27:14.348Z,101433.22
2018-01-23T16:32:15.705Z,101427.39
2018-01-23T16:37:17.095Z,101425.91
2018-01-23T16:42:18.408Z,101425.13
2018-01-23T16:47:19.824Z,101415.97
2018-01-23T16:52:21.206Z,101407.25
2018-01-23T16:57:22.560Z,101420.02
2018-01-23T17:02:23.879Z,101407.00
2018-01-23T17:07:25.214Z,101405.64
2018-01-23T17:12:26.591Z,101393.25
2018-01-23T17:17:27.919Z,101403.78
2018-01-23T17:22:29.238Z,101396.02
2018-01-23T17:27:30.564Z,101402.19
2018-01-23T17:32:31.906Z,101398.85
2018-01-23T17:37:34.031Z,101390.64
2018-01-23T17:42:36.051Z,101380.91
2018-01-23T17:47:37.421Z,101383.09
2018-01-23T17:52:39.073Z,101375.28
2018-01-23T17:57:41.388Z,101383.13
2018-01-23T18:02:42.987Z,101372.66
2018-01-23T18:07:45.142Z,101378.61
2018-01-23T18:12:46.825Z,101360.42
2018-01-23T18:17:48.738Z,101345.75
2018-01-23T18:22:50.424Z,101355.84
2018-01-23T18:27:51.914Z,101344.58
2018-01-23T18:32:53.346Z,101331.47
2018-01-23T18:37:54.686Z,101332.13
2018-01-23T18:42:56.802Z,101329.37
2018-01-23T18:47:58.954Z,101321.23
2018-01-23T18:53:00.285Z,101312.07
2018-01-23T18:58:01.647Z,101303.83
2018-01-23T19:03:03.122Z,101298.88
2018-01-23T19:08:04.533Z,101283.94
2018-01-23T19:13:06.690Z,101272.09
2018-01-23T19:18:08.127Z,101237.29
2018-01-23T19:23:09.479Z,101281.91
2018-01-23T19:28:10.928Z,101276.84
2018-01-23T19:33:12.257Z,101274.19
2018-01-23T19:38:13.588Z,101277.44
2018-01-23T19:43:14.915Z,101283.02
2018-01-23T19:48:16.327Z,101289.48
2018-01-23T19:53:17.655Z,101294.39
2018-01-23T19:58:18.998Z,101276.58
2018-01-23T20:03:21.103Z,101272.17
2018-01-23T20:08:22.490Z,101248.13
2018-01-23T20:13:23.875Z,101261.22
2018-01-23T20:18:25.968Z,101259.12
2018-01-23T20:23:27.417Z,101259.66
2018-01-23T20:28:28.787Z,101258.09
2018-01-23T20:33:30.187Z,101255.30
2018-01-23T20:38:31.708Z,101255.08
2018-01-23T20:43:33.042Z,101251.36
2018-01-23T20:48:35.215Z,101244.95
2018-01-23T20:53:36.631Z,101231.73
2018-01-23T20:58:37.966Z,101244.47
2018-01-23T21:03:43.687Z,101237.91
2018-01-23T21:08:46.440Z,101245.22
2018-01-23T21:13:47.781Z,101250.67
2018-01-23T21:18:50.871Z,101258.13
2018-01-23T21:23:52.918Z,101253.86
2018-01-23T21:28:54.361Z,101263.66
2018-01-23T21:33:56.572Z,101259.48
2018-01-23T21:38:57.877Z,101242.46
2018-01-23T21:44:00.077Z,101255.72
2018-01-23T21:49:02.148Z,101248.78
2018-01-23T21:54:03.488Z,101247.85
2018-01-23T21:59:05.088Z,101250.69
2018-01-23T22:04:06.647Z,101233.02
2018-01-23T22:09:08.787Z,101226.91
2018-01-23T22:14:10.175Z,101243.44
2018-01-23T22:19:11.533Z,101234.83
2018-01-23T22:24:12.899Z,101226.92
2018-01-23T22:29:14.322Z,101206.12
2018-01-23T22:34:15.699Z,101223.97
2018-01-23T22:39:17.048Z,101220.28
2018-01-23T22:44:25.956Z,101227.66
2018-01-23T22:49:32.458Z,101231.72
2018-01-23T22:54:34.299Z,101238.05
2018-01-23T22:59:36.462Z,101233.37
2018-01-23T23:04:37.775Z,101233.48
2018-01-23T23:09:40.613Z,101218.78
2018-01-23T23:14:44.353Z,101218.14
2018-01-23T23:19:46.437Z,101224.03
2018-01-23T23:24:47.799Z,101221.16
2018-01-23T23:29:49.115Z,101217.81
2018-01-23T23:34:50.491Z,101221.40
2018-01-23T23:39:51.847Z,101222.95
2018-01-23T23:44:54.298Z,101220.67
2018-01-23T23:49:55.635Z,101228.48
2018-01-23T23:54:57.728Z,101232.08
2018-01-23T23:59:59.090Z,101226.73
